CheckWX is a tool to help pilots better visualize weather data.  It is not intended as a substitute for an official pre-flight weather briefing.

03:22:20 UTC

KCIN METAR
Arthur N Neu Airport
Carroll, Iowa, USA
Current

7 mins ago

KCIN 240315Z AUTO 13008KT 10SM OVC036 07/05 A3005 RMK AO2
Observed
Mar-24 @ 03:15 UTC
Wind
  • 130° at 8 KTS
Visibility
10 SM
Flight Rules
VFR
Cloud Levels
  • Overcast at 3,600' AGL
Temperature
C / 45°F
Dewpoint
C / 41°F
Humidity
87%
Altimeter
30.05" Hg
Pressure
1017.62 hPa
Previous

27 mins ago

KCIN 240255Z AUTO 13008KT OVC037 07/05 A3005 RMK AO2
Observed
Mar-24 @ 02:55 UTC
Wind
  • 130° at 8 KTS
Visibility
Cloud Levels
  • Overcast at 3,700' AGL
Temperature
C / 45°F
Dewpoint
C / 41°F
Humidity
87%
Altimeter
30.05" Hg
Pressure
1017.62 hPa
Previous

47 mins ago

KCIN 240235Z AUTO 11010KT 10SM OVC037 07/04 A3004 RMK AO2
Observed
Mar-24 @ 02:35 UTC
Wind
  • 110° at 10 KTS
Visibility
10 SM
Flight Rules
VFR
Cloud Levels
  • Overcast at 3,700' AGL
Temperature
C / 45°F
Dewpoint
C / 39°F
Humidity
81%
Altimeter
30.04" Hg
Pressure
1017.32 hPa